Time;durP1;ratioP1;P1;durP2;ratioP2;P2;SDS_P1;SDS_P2;PMS_P1;PMS_P2;Temp;Humidity;BMP_temperature;BMP_pressure;BME280_temperature;BME280_humidity;BME280_pressure;Samples;Min_cycle;Max_cycle;Signal;HPM_P1;HPM_P2
2022/07/03 00:01:03;;;;;;;11.40;6.97;;;;;;;22.08;79.88;95302.53;4945050;28;20215;-76
2022/07/03 00:03:29;;;;;;;13.43;6.93;;;;;;;21.87;80.20;95280.28;4940322;28;20222;-75
2022/07/03 00:05:54;;;;;;;11.65;6.65;;;;;;;21.98;80.62;95299.84;4939080;29;20628;-75
2022/07/03 00:08:20;;;;;;;11.63;7.78;;;;;;;21.77;80.71;95269.59;4942461;29;20183;-75
2022/07/03 00:10:45;;;;;;;12.55;7.72;;;;;;;21.95;81.18;95303.06;4941784;29;20194;-75
2022/07/03 00:13:11;;;;;;;9.02;7.43;;;;;;;21.88;81.35;95299.88;4941967;29;20170;-75
2022/07/03 00:15:36;;;;;;;14.57;7.85;;;;;;;21.82;81.82;95302.53;4954080;29;20285;-75
2022/07/03 00:18:02;;;;;;;9.25;7.35;;;;;;;21.80;82.46;95288.59;4953126;28;20337;-75
2022/07/03 00:20:30;;;;;;;11.60;7.30;;;;;;;21.80;82.33;95288.59;4953892;29;20224;-75
2022/07/03 00:22:59;;;;;;;14.52;6.65;;;;;;;21.78;82.26;95298.00;4953956;29;20257;-75
2022/07/03 00:25:25;;;;;;;15.73;6.85;;;;;;;21.82;81.67;95302.53;4954070;29;20205;-75
2022/07/03 00:27:50;;;;;;;10.13;7.57;;;;;;;21.81;82.08;95308.16;4953960;29;20265;-75
2022/07/03 00:30:16;;;;;;;12.65;7.75;;;;;;;21.73;82.03;95292.63;4953925;29;20183;-75
2022/07/03 00:32:42;;;;;;;12.85;8.20;;;;;;;21.75;82.27;95302.00;4948879;28;20190;-75
2022/07/03 00:35:08;;;;;;;11.93;8.15;;;;;;;21.77;82.34;95296.38;4953529;29;20638;-75
2022/07/03 00:37:34;;;;;;;10.90;7.68;;;;;;;21.66;82.55;95294.78;4953383;29;20318;-75
2022/07/03 00:39:59;;;;;;;8.50;7.00;;;;;;;21.68;83.03;95285.41;4953350;29;20175;-75
2022/07/03 00:42:27;;;;;;;11.18;7.95;;;;;;;21.69;82.63;95287.03;4953508;29;20286;-75
2022/07/03 00:44:56;;;;;;;14.25;8.48;;;;;;;21.66;82.91;95281.38;4953368;29;20611;-75
2022/07/03 00:47:24;;;;;;;10.90;7.57;;;;;;;21.66;82.99;95289.44;4953481;29;20630;-75
2022/07/03 00:50:05;;;;;;;10.57;7.50;;;;;;;21.66;82.63;95281.38;4953574;29;20661;-75
2022/07/03 00:52:30;;;;;;;11.07;6.95;;;;;;;21.64;83.02;95278.97;4953548;29;20170;-75
2022/07/03 00:54:58;;;;;;;11.02;8.13;;;;;;;21.61;82.96;95284.88;4953182;29;20205;-75
2022/07/03 00:57:28;;;;;;;18.48;8.38;;;;;;;21.59;82.80;95278.97;4953106;29;20616;-75
2022/07/03 00:59:54;;;;;;;15.77;8.20;;;;;;;21.61;82.70;95276.84;4953222;29;20733;-75
2022/07/03 01:02:41;;;;;;;11.77;7.60;;;;;;;21.56;82.69;95262.63;4952891;29;20214;-75
2022/07/03 01:05:16;;;;;;;11.02;8.38;;;;;;;21.49;83.19;95268.25;4953352;29;20960;-75
2022/07/03 01:08:12;;;;;;;9.90;7.47;;;;;;;21.48;83.10;95255.13;4952976;29;20184;-75
2022/07/03 01:10:49;;;;;;;15.23;7.80;;;;;;;21.48;83.21;95255.13;4953132;29;20177;-75
2022/07/03 01:13:22;;;;;;;10.23;8.13;;;;;;;21.50;82.90;95261.03;4952772;28;20637;-75
2022/07/03 01:16:11;;;;;;;13.40;8.05;;;;;;;21.44;82.85;95258.38;4952898;29;20272;-75
2022/07/03 01:18:51;;;;;;;9.00;7.28;;;;;;;21.32;83.57;95265.84;4952873;29;20170;-75
2022/07/03 01:21:34;;;;;;;13.52;8.18;;;;;;;21.30;84.07;95257.28;4952778;29;20704;-75
2022/07/03 01:24:23;;;;;;;13.68;9.15;;;;;;;21.27;84.32;95259.72;4952903;29;20210;-75
2022/07/03 01:26:55;;;;;;;11.00;7.10;;;;;;;21.28;83.63;95261.28;4953116;29;20298;-75
2022/07/03 01:29:31;;;;;;;11.38;7.82;;;;;;;21.17;84.39;95252.47;4952605;29;20201;-75
2022/07/03 01:31:59;;;;;;;13.98;7.63;;;;;;;21.24;83.88;95258.38;4952582;29;20252;-75
2022/07/03 01:34:33;;;;;;;13.15;7.95;;;;;;;21.23;83.77;95251.38;4952758;29;20555;-75
2022/07/03 01:37:02;;;;;;;14.32;8.63;;;;;;;21.17;83.95;95262.34;4952979;29;20976;-75
2022/07/03 01:39:28;;;;;;;20.40;13.18;;;;;;;21.13;84.11;95264.75;4952867;29;20682;-75
2022/07/03 01:41:58;;;;;;;13.48;8.65;;;;;;;21.15;83.60;95265.28;4952478;29;20705;-75
2022/07/03 01:44:27;;;;;;;15.60;10.48;;;;;;;20.83;83.88;95219.22;4952502;29;20187;-75
2022/07/03 01:46:55;;;;;;;16.70;9.45;;;;;;;21.13;83.72;95262.06;4952496;29;20278;-75
2022/07/03 01:49:23;;;;;;;11.95;8.65;;;;;;;21.11;83.95;95264.19;4952349;29;20179;-75
2022/07/03 01:51:50;;;;;;;11.38;8.35;;;;;;;21.05;83.67;95265.28;4952170;29;20189;-75
2022/07/03 01:54:17;;;;;;;13.07;10.00;;;;;;;21.01;84.27;95264.22;4952445;29;20193;-75
2022/07/03 01:56:44;;;;;;;9.18;8.05;;;;;;;20.97;84.07;95263.91;4952487;29;20332;-75
2022/07/03 01:59:10;;;;;;;13.40;8.70;;;;;;;21.00;84.26;95258.03;4952696;29;20261;-75
2022/07/03 02:01:51;;;;;;;14.30;10.00;;;;;;;21.02;84.15;95261.25;4952704;29;20233;-75
2022/07/03 02:04:27;;;;;;;15.45;8.63;;;;;;;21.02;84.25;95263.09;4952690;29;20304;-75
2022/07/03 02:07:05;;;;;;;12.38;9.10;;;;;;;21.01;84.26;95258.84;4952508;29;20182;-75
2022/07/03 02:10:01;;;;;;;18.90;12.80;;;;;;;21.08;83.61;95262.06;4952386;29;20249;-75
2022/07/03 02:12:34;;;;;;;22.95;16.20;;;;;;;21.07;83.98;95260.47;4944464;29;20190;-75
2022/07/03 02:15:10;;;;;;;13.43;9.45;;;;;;;21.01;84.02;95261.53;4952072;29;20214;-75
2022/07/03 02:17:44;;;;;;;14.07;10.40;;;;;;;20.93;84.05;95248.66;4952284;29;20228;-75
2022/07/03 02:20:10;;;;;;;22.70;13.90;;;;;;;20.98;83.83;95254.81;4952067;29;20192;-75
2022/07/03 02:22:46;;;;;;;24.63;17.00;;;;;;;20.84;84.16;95237.69;4952107;29;20557;-75
2022/07/03 02:25:31;;;;;;;24.73;15.88;;;;;;;20.98;84.32;95254.03;4953643;28;20177;-75
2022/07/03 02:28:17;;;;;;;25.67;17.17;;;;;;;20.98;84.14;95260.19;4956212;29;20265;-75
2022/07/03 02:30:47;;;;;;;19.27;11.70;;;;;;;20.96;84.24;95259.63;4955971;29;20256;-75
2022/07/03 02:33:19;;;;;;;21.83;13.00;;;;;;;20.98;84.29;95259.38;4955885;29;20182;-75
2022/07/03 02:35:48;;;;;;;17.33;12.38;;;;;;;20.91;84.35;95261.50;4955868;29;20612;-75
2022/07/03 02:38:18;;;;;;;12.05;9.32;;;;;;;20.92;84.05;95260.44;4955865;29;20178;-75
2022/07/03 02:40:49;;;;;;;16.27;10.93;;;;;;;20.95;83.88;95265.25;4955703;29;20206;-75
2022/07/03 02:43:23;;;;;;;11.93;8.52;;;;;;;20.82;83.80;95247.03;4955845;29;20186;-75
2022/07/03 02:45:55;;;;;;;12.00;8.80;;;;;;;20.88;84.39;95262.03;4955381;29;20225;-75
2022/07/03 02:48:41;;;;;;;13.43;8.48;;;;;;;20.80;84.16;95246.50;4955274;29;20182;-75
2022/07/03 02:51:16;;;;;;;10.38;7.45;;;;;;;20.80;84.16;95258.00;4955201;29;20178;-75
2022/07/03 02:53:48;;;;;;;16.60;10.48;;;;;;;20.83;84.33;95270.88;4955104;29;20184;-75
2022/07/03 02:56:23;;;;;;;28.45;17.27;;;;;;;20.70;84.03;95239.25;4955111;29;20186;-75
2022/07/03 02:59:27;;;;;;;11.88;8.52;;;;;;;20.73;83.90;95245.94;4955245;29;20185;-75
2022/07/03 03:02:09;;;;;;;13.68;9.38;;;;;;;20.91;83.78;95281.06;4936834;29;20376;-75
2022/07/03 03:04:43;;;;;;;22.58;12.40;;;;;;;20.82;84.41;95269.25;4955068;29;20280;-75
2022/07/03 03:07:15;;;;;;;16.95;11.48;;;;;;;20.85;84.10;95279.41;4955222;29;20190;-75
2022/07/03 03:09:42;;;;;;;10.77;9.13;;;;;;;20.78;83.77;95286.91;4955402;29;20293;-75
2022/07/03 03:12:09;;;;;;;29.65;20.20;;;;;;;20.76;84.17;95282.91;4955317;29;20549;-75
2022/07/03 03:14:43;;;;;;;19.30;12.38;;;;;;;20.71;84.20;95281.81;4955213;29;20260;-75
2022/07/03 03:17:19;;;;;;;20.08;10.70;;;;;;;20.67;84.71;95269.19;4955151;29;20194;-75
2022/07/03 03:19:54;;;;;;;18.92;10.38;;;;;;;20.73;84.10;95278.88;4955085;29;20265;-75
2022/07/03 03:22:47;;;;;;;16.60;11.80;;;;;;;20.87;84.04;95298.69;4955161;29;20209;-75
2022/07/03 03:25:13;;;;;;;14.20;9.40;;;;;;;20.87;84.13;95298.69;4950254;29;20187;-75
2022/07/03 03:27:39;;;;;;;15.80;10.93;;;;;;;20.88;84.03;95294.97;4955043;29;20186;-75
2022/07/03 03:30:06;;;;;;;14.75;9.05;;;;;;;20.87;83.82;95279.16;4955035;29;20237;-75
2022/07/03 03:32:34;;;;;;;15.43;10.60;;;;;;;20.98;84.29;95283.47;4937705;29;20182;-75
2022/07/03 03:35:01;;;;;;;14.55;9.80;;;;;;;21.05;84.05;95294.72;4954866;29;20241;-75
2022/07/03 03:37:26;;;;;;;15.63;10.00;;;;;;;21.07;84.20;95289.91;4954538;28;20187;-75
2022/07/03 03:39:52;;;;;;;22.38;12.85;;;;;;;21.15;84.35;95291.25;4954991;29;20197;-75
2022/07/03 03:42:17;;;;;;;18.95;12.90;;;;;;;21.31;83.42;95290.22;4955011;29;20249;-75
2022/07/03 03:44:42;;;;;;;23.90;12.63;;;;;;;21.35;83.23;95286.75;4954993;29;20989;-75
2022/07/03 03:47:09;;;;;;;30.92;19.33;;;;;;;21.50;83.21;95294.00;4954609;29;20189;-75
2022/07/03 03:49:34;;;;;;;18.63;9.38;;;;;;;21.58;82.54;95306.84;4954553;29;20277;-75
2022/07/03 03:52:01;;;;;;;16.92;11.23;;;;;;;21.70;82.32;95293.19;4954566;29;20178;-75
2022/07/03 03:54:26;;;;;;;12.18;8.77;;;;;;;21.80;81.31;95303.88;4954753;29;20175;-75
2022/07/03 03:56:52;;;;;;;15.60;10.80;;;;;;;21.90;81.39;95306.53;4954411;29;20193;-75
2022/07/03 03:59:17;;;;;;;11.52;9.55;;;;;;;22.06;81.41;95308.16;4954477;29;20178;-75
2022/07/03 04:01:43;;;;;;;14.05;10.40;;;;;;;22.23;80.08;95313.22;4954224;29;20216;-75
2022/07/03 04:04:08;;;;;;;13.05;9.57;;;;;;;22.35;80.07;95311.03;4954178;29;20253;-75
2022/07/03 04:06:34;;;;;;;15.98;10.15;;;;;;;22.49;79.88;95312.06;4954209;29;20186;-75
2022/07/03 04:08:59;;;;;;;14.45;9.73;;;;;;;22.61;78.83;95308.25;4954353;29;20207;-77
2022/07/03 04:11:24;;;;;;;16.52;10.15;;;;;;;22.70;77.95;95301.25;4954713;29;20174;-76
2022/07/03 04:13:50;;;;;;;17.52;11.38;;;;;;;22.81;76.77;95303.66;4954336;29;20588;-76
2022/07/03 04:16:15;;;;;;;12.13;9.05;;;;;;;22.82;77.13;95288.34;4954269;29;20188;-76
2022/07/03 04:18:40;;;;;;;15.52;9.10;;;;;;;22.90;75.39;95268.97;4954840;29;20187;-77
2022/07/03 04:21:06;;;;;;;13.35;9.68;;;;;;;23.18;75.33;95297.78;4954550;29;20202;-77
2022/07/03 04:23:31;;;;;;;13.80;9.10;;;;;;;23.32;74.53;95297.97;4954510;29;20175;-77
2022/07/03 04:26:06;;;;;;;12.48;9.00;;;;;;;23.42;74.44;95299.78;4954768;29;20650;-77
2022/07/03 04:28:32;;;;;;;22.27;15.93;;;;;;;23.53;74.25;95302.13;4954543;29;20649;-78
2022/07/03 04:30:57;;;;;;;15.10;9.07;;;;;;;23.75;73.65;95299.00;4954391;29;20179;-77
2022/07/03 04:33:23;;;;;;;14.02;8.35;;;;;;;23.85;72.59;95281.97;4954395;29;20221;-77
2022/07/03 04:35:48;;;;;;;11.40;8.60;;;;;;;24.12;72.02;95294.88;4954462;29;20192;-77
2022/07/03 04:38:13;;;;;;;9.80;8.50;;;;;;;24.24;71.40;95304.19;4954514;29;20186;-77
2022/07/03 04:40:39;;;;;;;17.05;10.00;;;;;;;24.39;70.90;95300.53;4954003;29;20235;-77
2022/07/03 04:43:04;;;;;;;11.88;7.78;;;;;;;24.56;70.22;95298.16;4954023;29;20602;-77
2022/07/03 04:45:30;;;;;;;13.20;7.40;;;;;;;24.74;69.42;95307.38;4954042;29;20622;-77
2022/07/03 04:47:55;;;;;;;10.00;7.97;;;;;;;24.86;68.94;95309.66;4953308;28;20269;-77
2022/07/03 04:50:20;;;;;;;10.60;8.43;;;;;;;24.96;68.44;95304.97;4953668;29;20180;-78
2022/07/03 04:52:46;;;;;;;12.00;8.15;;;;;;;25.09;68.86;95311.53;4954146;29;20183;-78
2022/07/03 04:55:12;;;;;;;13.10;8.10;;;;;;;25.10;68.28;95295.06;4953875;29;20201;-77
2022/07/03 04:57:37;;;;;;;12.57;8.00;;;;;;;25.45;67.15;95311.81;4953998;29;20198;-78
2022/07/03 05:00:04;;;;;;;11.88;7.20;;;;;;;25.66;65.97;95307.75;4954070;29;20713;-78
2022/07/03 05:02:29;;;;;;;14.88;10.13;;;;;;;25.79;66.15;95292.69;4953788;29;20205;-77
2022/07/03 05:04:55;;;;;;;13.48;8.35;;;;;;;26.09;65.11;95315.66;4953736;29;20230;-77
2022/07/03 05:07:20;;;;;;;16.50;9.98;;;;;;;26.38;64.38;95310.81;4953467;29;20631;-77
2022/07/03 05:09:45;;;;;;;11.77;8.27;;;;;;;26.60;63.30;95313.66;4953952;29;20189;-78
2022/07/03 05:12:11;;;;;;;8.93;7.28;;;;;;;26.86;61.70;95307.72;4953597;29;20261;-78
2022/07/03 05:14:36;;;;;;;19.67;7.60;;;;;;;27.19;61.54;95306.47;4953387;29;20244;-78
2022/07/03 05:17:02;;;;;;;12.02;8.05;;;;;;;27.54;60.11;95309.50;4953598;29;20704;-78
2022/07/03 05:19:27;;;;;;;8.43;6.68;;;;;;;27.97;57.99;95312.50;4952305;28;20182;-78
2022/07/03 05:21:52;;;;;;;12.38;7.40;;;;;;;28.24;55.97;95301.56;4951828;29;20202;-78
2022/07/03 05:24:18;;;;;;;10.23;8.10;;;;;;;28.50;56.44;95298.97;4953750;29;20178;-78
2022/07/03 05:26:43;;;;;;;9.00;6.97;;;;;;;28.86;55.91;95306.91;4953598;29;20637;-78
2022/07/03 05:29:09;;;;;;;12.20;7.25;;;;;;;29.13;53.42;95281.44;4953759;29;20664;-79
2022/07/03 05:31:34;;;;;;;11.02;7.22;;;;;;;29.56;53.97;95295.84;4953903;29;20191;-79
2022/07/03 05:34:00;;;;;;;8.38;7.47;;;;;;;29.78;52.71;95286.72;4953673;29;20676;-79
2022/07/03 05:36:25;;;;;;;14.40;8.98;;;;;;;30.04;50.26;95308.44;4954096;29;20630;-79
2022/07/03 05:41:34;;;;;;;14.75;7.93;;;;;;;30.46;48.72;95314.84;4953463;29;20691;-78
2022/07/03 05:44:00;;;;;;;11.90;7.38;;;;;;;30.41;47.95;95319.69;4953146;29;20261;-77
2022/07/03 05:46:25;;;;;;;8.57;6.25;;;;;;;30.19;49.74;95313.34;4953059;29;20277;-77
2022/07/03 05:48:51;;;;;;;11.32;6.95;;;;;;;30.15;50.21;95284.44;4952730;29;20583;-77
2022/07/03 05:51:16;;;;;;;10.77;6.25;;;;;;;30.85;49.90;95316.50;4952530;29;20241;-78
2022/07/03 05:53:42;;;;;;;10.80;6.90;;;;;;;31.07;48.97;95282.78;4935724;29;20636;-78
2022/07/03 05:56:07;;;;;;;10.80;6.57;;;;;;;31.56;48.40;95318.47;4952960;29;20175;-78
2022/07/03 05:58:32;;;;;;;6.88;6.18;;;;;;;31.64;46.51;95307.53;4952739;28;20634;-78
2022/07/03 06:00:58;;;;;;;12.65;7.00;;;;;;;31.66;46.43;95291.63;4952204;29;20201;-78
2022/07/03 06:03:23;;;;;;;10.43;6.90;;;;;;;31.63;45.51;95307.84;4952811;29;20223;-78
2022/07/03 06:05:49;;;;;;;9.88;6.90;;;;;;;31.27;46.14;95306.50;4952517;28;20629;-78
2022/07/03 06:08:14;;;;;;;10.73;5.75;;;;;;;31.12;46.77;95298.94;4935914;29;20175;-78
2022/07/03 06:10:39;;;;;;;7.22;6.43;;;;;;;31.18;47.45;95304.97;4953172;29;20937;-78
2022/07/03 06:13:05;;;;;;;11.65;6.78;;;;;;;31.27;47.07;95311.16;4952849;29;20166;-79
2022/07/03 06:15:30;;;;;;;11.15;6.13;;;;;;;31.17;47.93;95290.56;4953339;29;20174;-79
2022/07/03 06:17:56;;;;;;;8.82;7.03;;;;;;;31.19;46.81;95284.78;4953019;29;20233;-77
2022/07/03 06:20:21;;;;;;;11.13;6.10;;;;;;;31.44;47.73;95311.81;4953392;29;20174;-77
2022/07/03 06:22:46;;;;;;;8.45;5.95;;;;;;;31.39;46.21;95311.22;4953409;29;20919;-77
2022/07/03 06:25:13;;;;;;;7.85;6.90;;;;;;;31.28;45.50;95312.75;4953141;29;20222;-75
2022/07/03 06:27:38;;;;;;;10.48;6.65;;;;;;;31.23;45.95;95313.72;4951723;28;20692;-76
2022/07/03 06:30:04;;;;;;;8.75;6.18;;;;;;;31.19;46.79;95303.84;4951542;29;20186;-76
2022/07/03 06:32:30;;;;;;;10.68;7.57;;;;;;;31.27;47.30;95317.38;4952211;29;20178;-76
2022/07/03 06:34:55;;;;;;;12.57;7.18;;;;;;;31.38;48.16;95306.91;4951915;29;20237;-75
2022/07/03 06:37:21;;;;;;;12.80;7.15;;;;;;;31.44;45.76;95317.25;4952518;29;20288;-76
2022/07/03 06:39:46;;;;;;;10.88;6.85;;;;;;;31.16;46.22;95313.44;4951862;29;20241;-75
2022/07/03 06:42:12;;;;;;;11.27;7.03;;;;;;;30.61;46.93;95314.38;4951549;29;20696;-77
2022/07/03 06:44:37;;;;;;;10.48;7.15;;;;;;;30.38;48.22;95311.06;4952158;29;20218;-75
2022/07/03 06:47:03;;;;;;;14.68;9.80;;;;;;;30.11;47.90;95311.44;4951836;29;20201;-76
2022/07/03 06:49:32;;;;;;;10.18;7.90;;;;;;;29.95;48.61;95302.22;4951959;29;20223;-76
2022/07/03 06:51:57;;;;;;;8.75;6.47;;;;;;;30.14;49.57;95308.09;4934892;29;20179;-76
2022/07/03 06:54:22;;;;;;;8.18;6.78;;;;;;;30.19;49.01;95304.38;4952335;29;20189;-76
2022/07/03 06:56:48;;;;;;;8.45;7.55;;;;;;;30.23;49.32;95308.06;4935011;29;20178;-76
2022/07/03 06:59:13;;;;;;;8.63;6.75;;;;;;;30.60;48.99;95314.69;4952325;29;20186;-76
2022/07/03 07:01:39;;;;;;;9.15;6.88;;;;;;;30.82;48.85;95302.75;4952076;29;20217;-76
2022/07/03 07:04:04;;;;;;;7.95;6.38;;;;;;;30.96;48.64;95303.31;4952278;29;20222;-76
2022/07/03 07:06:29;;;;;;;10.38;7.15;;;;;;;31.29;47.32;95304.25;4952186;29;20620;-76
2022/07/03 07:08:55;;;;;;;8.68;6.65;;;;;;;31.25;46.09;95280.72;4951998;29;20234;-77
2022/07/03 07:11:20;;;;;;;9.65;6.80;;;;;;;31.18;46.59;95294.06;4953358;28;20181;-76
2022/07/03 07:13:46;;;;;;;10.82;8.60;;;;;;;31.42;45.63;95302.38;4955707;29;20565;-75
2022/07/03 07:16:11;;;;;;;10.07;8.15;;;;;;;30.97;46.29;95288.56;4955530;29;20568;-75
2022/07/03 07:18:40;;;;;;;14.25;7.82;;;;;;;30.53;48.65;95274.41;4955155;29;20178;-74
2022/07/03 07:21:05;;;;;;;11.30;9.02;;;;;;;30.41;49.97;95293.31;4954946;29;20721;-75
2022/07/03 07:23:31;;;;;;;8.60;7.47;;;;;;;30.17;48.77;95295.78;4952435;28;20326;-74
2022/07/03 07:25:56;;;;;;;12.38;7.65;;;;;;;29.73;48.85;95286.09;4954742;29;20666;-74
2022/07/03 07:28:21;;;;;;;9.75;7.28;;;;;;;29.57;50.77;95281.16;4954955;29;20225;-74
2022/07/03 07:30:47;;;;;;;8.48;6.25;;;;;;;29.85;51.11;95289.75;4954573;29;20170;-74
2022/07/03 07:33:12;;;;;;;13.57;7.95;;;;;;;30.04;47.76;95285.91;4954063;29;20313;-74
2022/07/03 07:35:38;;;;;;;11.88;8.20;;;;;;;30.22;50.77;95290.97;4954725;29;20186;-74
2022/07/03 07:38:03;;;;;;;11.05;7.90;;;;;;;30.30;47.93;95281.19;4953250;29;20193;-75
2022/07/03 07:40:28;;;;;;;8.05;6.53;;;;;;;30.72;50.53;95285.66;4954791;29;20183;-77
2022/07/03 07:42:54;;;;;;;9.43;7.10;;;;;;;31.17;46.98;95287.03;4954992;29;20182;-76
2022/07/03 07:45:19;;;;;;;11.13;7.80;;;;;;;31.04;47.17;95275.25;4955158;29;20653;-76
2022/07/03 07:47:45;;;;;;;11.80;7.13;;;;;;;31.41;48.43;95281.72;4954568;29;20298;-77
2022/07/03 07:50:10;;;;;;;9.02;7.38;;;;;;;31.43;46.76;95283.00;4954992;29;20197;-78
2022/07/03 07:52:36;;;;;;;12.15;7.30;;;;;;;31.56;47.87;95278.41;4938170;29;20183;-78
2022/07/03 07:55:03;;;;;;;8.80;6.78;;;;;;;31.87;47.16;95280.72;4955105;29;20269;-78
2022/07/03 07:57:37;;;;;;;8.95;6.57;;;;;;;31.96;45.29;95256.91;4955073;29;20174;-77
2022/07/03 08:00:14;;;;;;;10.32;7.07;;;;;;;32.23;43.24;95269.94;4954840;29;20568;-79
2022/07/03 08:05:36;;;;;;;12.07;7.50;;;;;;;32.10;42.62;95273.72;4947325;28;20246;-76
2022/07/03 08:08:16;;;;;;;10.82;6.28;;;;;;;32.24;43.52;95273.47;4943929;29;20241;-76
2022/07/03 08:10:50;;;;;;;8.98;6.60;;;;;;;31.80;43.55;95205.00;4946348;29;20182;-77
2022/07/03 08:13:18;;;;;;;7.70;6.20;;;;;;;32.01;44.39;95255.88;4951030;29;20178;-81
2022/07/03 08:15:44;;;;;;;7.47;6.05;;;;;;;32.11;42.56;95260.91;4948610;29;20193;-78
2022/07/03 08:18:10;;;;;;;10.02;5.95;;;;;;;32.04;42.16;95264.19;4947349;29;20182;-78
2022/07/03 08:20:36;;;;;;;17.20;6.07;;;;;;;32.16;43.18;95266.97;4954570;29;20183;-77
2022/07/03 08:23:02;;;;;;;12.23;5.95;;;;;;;32.25;41.26;95266.88;4948945;28;20285;-80
2022/07/03 08:25:29;;;;;;;10.00;5.68;;;;;;;31.93;41.84;95254.03;4948210;28;20174;-81
2022/07/03 08:27:55;;;;;;;10.75;6.15;;;;;;;31.79;42.74;95268.78;4954777;29;20178;-78
2022/07/03 08:30:21;;;;;;;9.45;5.30;;;;;;;31.38;43.48;95255.19;4951427;29;20188;-77
2022/07/03 08:32:47;;;;;;;6.45;5.50;;;;;;;31.49;43.40;95259.06;4949481;29;20889;-76
2022/07/03 08:35:13;;;;;;;8.10;5.82;;;;;;;31.06;44.02;95265.63;4948485;29;20277;-76
2022/07/03 08:37:43;;;;;;;10.88;6.18;;;;;;;31.15;45.14;95256.63;4948499;28;20604;-79
2022/07/03 08:40:10;;;;;;;8.73;5.53;;;;;;;31.39;48.05;95237.72;4950953;29;20175;-77
2022/07/03 08:42:45;;;;;;;7.00;6.03;;;;;;;31.69;48.26;95266.47;4953103;29;20190;-76
2022/07/03 08:45:15;;;;;;;6.13;5.43;;;;;;;32.12;44.06;95276.13;4946598;28;20260;-77
2022/07/03 08:47:45;;;;;;;13.02;5.63;;;;;;;32.19;42.45;95265.50;4947337;28;20269;-75
2022/07/03 08:50:12;;;;;;;5.97;5.38;;;;;;;31.92;41.63;95236.91;4952047;29;20182;-75
2022/07/03 08:52:38;;;;;;;6.90;5.18;;;;;;;31.95;43.61;95255.31;4943320;29;20295;-76
2022/07/03 08:55:04;;;;;;;6.03;5.35;;;;;;;32.06;44.04;95251.03;4944543;28;20187;-75
2022/07/03 08:57:32;;;;;;;7.68;5.05;;;;;;;32.29;41.85;95251.44;4950029;28;20185;-75
2022/07/03 09:00:00;;;;;;;7.50;5.30;;;;;;;32.26;41.32;95246.66;4947917;29;20178;-75
2022/07/03 09:02:27;;;;;;;8.18;5.15;;;;;;;32.30;41.01;95233.94;4942246;29;20774;-75
2022/07/03 09:04:52;;;;;;;7.90;5.13;;;;;;;32.36;39.60;95245.41;4943935;29;20915;-75
2022/07/03 09:07:19;;;;;;;7.07;4.72;;;;;;;32.43;41.57;95246.47;4945458;29;20316;-75
2022/07/03 09:09:45;;;;;;;5.90;4.75;;;;;;;32.50;39.09;95254.06;4940495;29;20174;-75
2022/07/03 09:12:11;;;;;;;6.20;4.80;;;;;;;32.10;40.46;95248.41;4942639;29;20182;-75
2022/07/03 09:14:36;;;;;;;6.10;4.70;;;;;;;32.12;41.47;95249.66;4948831;29;20185;-75
2022/07/03 09:17:02;;;;;;;4.88;4.38;;;;;;;32.01;41.53;95226.72;4944472;29;20179;-75
2022/07/03 09:19:41;;;;;;;6.10;4.93;;;;;;;32.07;40.92;95235.47;4945532;28;20187;-75
2022/07/03 09:22:25;;;;;;;4.50;3.95;;;;;;;32.02;39.72;95241.13;4947221;28;20214;-75
2022/07/03 09:24:52;;;;;;;5.25;4.40;;;;;;;32.06;41.05;95234.69;4947641;29;20209;-75
2022/07/03 09:27:20;;;;;;;4.70;4.20;;;;;;;31.90;38.98;95236.47;4947107;29;20190;-75
2022/07/03 09:30:00;;;;;;;7.20;4.40;;;;;;;31.53;39.61;95238.22;4950263;28;20182;-75
2022/07/03 09:32:31;;;;;;;9.30;4.35;;;;;;;30.92;40.61;95235.16;4944831;29;20174;-75
2022/07/03 09:35:18;;;;;;;8.40;4.18;;;;;;;31.09;39.65;95223.41;4943830;28;20197;-75
2022/07/03 09:38:13;;;;;;;5.38;3.70;;;;;;;31.12;41.17;95233.63;4943833;29;20202;-75
2022/07/03 09:40:50;;;;;;;8.82;4.38;;;;;;;31.04;38.37;95231.72;4935323;29;20278;-75
2022/07/03 09:43:21;;;;;;;4.32;3.15;;;;;;;31.15;39.45;95218.53;4944945;28;20185;-75
2022/07/03 09:46:01;;;;;;;8.05;3.72;;;;;;;30.59;39.69;95234.25;4948104;29;20186;-75
2022/07/03 09:48:27;;;;;;;5.70;3.90;;;;;;;30.50;41.14;95228.03;4947846;29;20185;-75
2022/07/03 09:51:13;;;;;;;7.07;5.00;;;;;;;30.60;40.53;95231.22;4939789;28;20209;-75
2022/07/03 09:53:52;;;;;;;7.82;4.07;;;;;;;30.33;41.12;95227.00;4944464;29;20187;-74
2022/07/03 09:56:27;;;;;;;4.93;4.15;;;;;;;30.29;41.67;95219.81;4947405;29;20186;-74
2022/07/03 09:59:10;;;;;;;5.40;4.45;;;;;;;30.48;42.32;95216.69;4947163;29;20601;-75
2022/07/03 10:01:43;;;;;;;9.02;3.67;;;;;;;30.50;40.57;95214.44;4942962;29;20205;-75
2022/07/03 10:04:10;;;;;;;6.47;4.03;;;;;;;30.81;40.68;95214.91;4946852;29;20336;-75
2022/07/03 10:06:55;;;;;;;5.72;3.30;;;;;;;30.78;39.81;95212.88;4947941;28;20193;-75
2022/07/03 10:09:23;;;;;;;7.13;4.20;;;;;;;30.93;40.61;95217.72;4943967;29;20234;-75
2022/07/03 10:11:48;;;;;;;5.75;3.67;;;;;;;31.04;40.00;95202.59;4939973;28;20178;-74
2022/07/03 10:14:17;;;;;;;6.72;4.13;;;;;;;31.34;41.57;95219.66;4941283;29;20182;-76
2022/07/03 10:16:43;;;;;;;9.40;4.10;;;;;;;31.36;41.61;95205.72;4951145;29;20178;-76
2022/07/03 10:19:23;;;;;;;4.72;4.18;;;;;;;31.63;42.85;95201.66;4944476;28;20206;-76
2022/07/03 10:21:55;;;;;;;8.23;4.47;;;;;;;31.76;40.66;95200.53;4940922;29;20205;-76
2022/07/03 10:24:23;;;;;;;4.55;4.15;;;;;;;31.57;40.70;95200.25;4942996;28;20186;-76
2022/07/03 10:26:50;;;;;;;5.30;4.40;;;;;;;31.62;40.51;95200.88;4947009;29;20189;-76
2022/07/03 10:29:16;;;;;;;6.18;4.03;;;;;;;31.43;39.63;95170.59;4926944;29;20186;-76
2022/07/03 10:31:45;;;;;;;7.80;4.03;;;;;;;31.56;39.89;95176.88;4943519;29;20178;-76
2022/07/03 10:34:12;;;;;;;7.45;3.80;;;;;;;31.53;40.46;95194.69;4946380;29;20186;-76
2022/07/03 10:36:38;;;;;;;5.57;4.00;;;;;;;30.97;40.81;95191.44;4945512;29;20180;-76
2022/07/03 10:39:06;;;;;;;5.82;3.70;;;;;;;30.85;39.26;95172.34;4942592;28;20187;-76
2022/07/03 10:47:42;;;;;;;6.63;3.78;;;;;;;30.81;39.26;95165.97;4953055;29;20552;-76
2022/07/03 10:50:27;;;;;;;9.70;6.10;;;;;;;31.02;39.70;95171.41;4952865;29;20170;-76
2022/07/03 10:53:22;;;;;;;4.57;3.65;;;;;;;31.11;36.87;95166.72;4955572;29;20202;-77
2022/07/03 10:56:04;;;;;;;4.43;3.25;;;;;;;31.32;35.07;95163.97;4948890;29;20549;-76
2022/07/03 10:58:29;;;;;;;4.10;3.10;;;;;;;31.38;36.57;95173.53;4955665;29;20265;-77
2022/07/03 11:00:57;;;;;;;3.85;3.20;;;;;;;31.06;34.74;95158.72;4955279;29;20698;-75
2022/07/03 11:04:01;;;;;;;6.95;3.17;;;;;;;30.51;34.69;95164.41;4955603;29;20669;-76
2022/07/03 11:07:05;;;;;;;4.43;3.10;;;;;;;30.37;35.52;95153.75;4955009;29;20198;-76
2022/07/03 11:09:30;;;;;;;8.27;3.22;;;;;;;30.41;34.62;95160.13;4955264;29;20185;-76
2022/07/03 11:11:56;;;;;;;3.65;3.20;;;;;;;30.43;35.61;95157.09;4955340;29;20171;-76
2022/07/03 11:14:26;;;;;;;5.40;3.13;;;;;;;30.49;34.96;95159.28;4955442;29;20559;-75
2022/07/03 11:17:21;;;;;;;5.65;3.45;;;;;;;30.57;35.26;95146.78;4955190;29;20186;-75
2022/07/03 11:23:08;;;;;;;7.80;3.67;;;;;;;30.63;35.81;95148.19;4945149;29;20206;-77
2022/07/03 11:25:41;;;;;;;6.93;3.75;;;;;;;30.69;37.29;95138.72;4942437;28;20186;-77
2022/07/03 11:28:07;;;;;;;3.25;2.95;;;;;;;30.66;35.54;95107.53;4941176;29;20534;-77
2022/07/03 11:30:33;;;;;;;3.42;3.13;;;;;;;30.49;35.93;95137.53;4953313;29;20189;-79
2022/07/03 11:33:00;;;;;;;3.60;3.30;;;;;;;30.55;36.37;95140.88;4948856;29;20182;-76
2022/07/03 11:36:02;;;;;;;5.35;3.63;;;;;;;30.44;36.93;95128.78;4946591;29;20178;-77
2022/07/03 11:38:29;;;;;;;4.68;3.00;;;;;;;30.66;36.75;95126.56;4950874;29;20178;-80
2022/07/03 11:40:58;;;;;;;3.33;3.03;;;;;;;30.89;37.45;95126.22;4953928;29;20281;-79
2022/07/03 11:43:24;;;;;;;5.90;3.25;;;;;;;31.13;38.31;95122.88;4954468;28;20174;-78
2022/07/03 11:45:50;;;;;;;5.15;3.58;;;;;;;31.18;35.79;95125.38;4951706;28;20189;-78
2022/07/03 11:48:19;;;;;;;5.90;3.67;;;;;;;31.10;36.94;95113.44;4954519;28;20176;-78
2022/07/03 11:50:45;;;;;;;4.90;3.28;;;;;;;31.25;35.61;95120.16;4951701;28;20265;-77
2022/07/03 11:53:18;;;;;;;5.60;3.70;;;;;;;30.93;35.32;95111.66;4961405;28;20656;-79